Time,TemperatureF,DewpointF,PressureIn,WindDirection,WindDirectionDegrees,WindSpeedMPH,WindSpeedGustMPH,Humidity,HourlyPrecipIn,Conditions,Clouds,dailyrainin,SolarRadiationWatts/m^2,SoftwareType,DateUTC
2013-09-12 00:00:00,66.0,66.0,-100.00,SSE,157,1.0,-999.0,99,-99.99,,,-99.99,0.000000,,2013-09-12 04:00:00,
2013-09-12 00:44:00,66.0,66.0,-100.00,SSE,157,1.0,-999.0,99,-99.99,,,-99.99,0.000000,,2013-09-12 04:44:00,
2013-09-12 00:54:00,66.0,66.0,-100.00,SSE,157,1.0,-999.0,99,-99.99,,,-99.99,0.000000,,2013-09-12 04:54:00,
2013-09-12 02:00:00,68.0,68.0,-100.00,SSW,202,1.0,-999.0,98,-99.99,,,-99.99,0.000000,,2013-09-12 06:00:00,
2013-09-12 02:42:00,68.0,68.0,-100.00,SSW,202,1.0,-999.0,98,-99.99,,,-99.99,0.000000,,2013-09-12 06:42:00,
2013-09-12 02:52:00,68.0,68.0,-100.00,SSW,202,1.0,-999.0,98,-99.99,,,-99.99,0.000000,,2013-09-12 06:52:00,
2013-09-12 03:00:00,69.0,67.0,-100.00,SSW,202,1.0,-999.0,94,-99.99,,,-99.99,0.000000,,2013-09-12 07:00:00,
2013-09-12 03:44:00,69.0,67.0,-100.00,SSW,202,1.0,-999.0,94,-99.99,,,-99.99,0.000000,,2013-09-12 07:44:00,
2013-09-12 03:52:00,69.0,67.0,-100.00,SSW,202,1.0,-999.0,94,-99.99,,,-99.99,0.000000,,2013-09-12 07:52:00,
2013-09-12 04:00:00,68.0,66.0,-100.00,SSW,202,1.0,-999.0,96,-99.99,,,-99.99,0.000000,,2013-09-12 08:00:00,
2013-09-12 04:42:00,68.0,66.0,-100.00,SSW,202,1.0,-999.0,96,-99.99,,,-99.99,0.000000,,2013-09-12 08:42:00,
2013-09-12 04:52:00,68.0,66.0,-100.00,SSW,202,1.0,-999.0,96,-99.99,,,-99.99,0.000000,,2013-09-12 08:52:00,
2013-09-12 06:00:00,67.0,67.0,-100.00,WNW,292,3.0,-999.0,100,-99.99,,,-99.99,0.000000,,2013-09-12 10:00:00,
2013-09-12 06:43:00,67.0,67.0,-100.00,WNW,292,3.0,-999.0,100,-99.99,,,-99.99,0.000000,,2013-09-12 10:43:00,
2013-09-12 06:53:00,67.0,67.0,-100.00,WNW,292,3.0,-999.0,100,-99.99,,,-99.99,0.000000,,2013-09-12 10:53:00,
2013-09-12 07:00:00,67.0,66.0,-100.00,NW,315,5.0,-999.0,96,-99.99,,,-99.99,0.000000,,2013-09-12 11:00:00,
2013-09-12 07:42:00,67.0,66.0,-100.00,NW,315,5.0,-999.0,96,-99.99,,,-99.99,0.000000,,2013-09-12 11:42:00,
2013-09-12 07:52:00,67.0,66.0,-100.00,NW,315,5.0,-999.0,96,-99.99,,,-99.99,0.000000,,2013-09-12 11:52:00,
2013-09-12 09:00:00,63.0,59.0,-100.00,NW,315,1.0,-999.0,87,-99.99,,,-99.99,74.239998,,2013-09-12 13:00:00,
2013-09-12 09:42:00,63.0,59.0,-100.00,NW,315,1.0,-999.0,87,-99.99,,,-99.99,74.239998,,2013-09-12 13:42:00,
2013-09-12 09:52:00,63.0,59.0,-100.00,NW,315,1.0,-999.0,87,-99.99,,,-99.99,74.239998,,2013-09-12 13:52:00,
2013-09-12 10:00:00,69.0,58.0,-100.00,WNW,292,1.0,-999.0,67,-99.99,,,-99.99,222.720001,,2013-09-12 14:00:00,
2013-09-12 10:42:00,69.0,58.0,-100.00,WNW,292,1.0,-999.0,67,-99.99,,,-99.99,222.720001,,2013-09-12 14:42:00,
2013-09-12 10:52:00,69.0,58.0,-100.00,WNW,292,1.0,-999.0,67,-99.99,,,-99.99,222.720001,,2013-09-12 14:52:00,
2013-09-12 11:00:00,76.0,54.0,-100.00,WSW,247,3.0,-999.0,47,-99.99,,,-99.99,501.119995,,2013-09-12 15:00:00,
2013-09-12 11:44:00,76.0,54.0,-100.00,WSW,247,3.0,-999.0,47,-99.99,,,-99.99,501.119995,,2013-09-12 15:44:00,
2013-09-12 11:54:00,76.0,54.0,-100.00,WSW,247,3.0,-999.0,47,-99.99,,,-99.99,501.119995,,2013-09-12 15:54:00,
2013-09-12 13:00:00,80.0,54.0,-100.00,WNW,292,4.0,-999.0,40,-99.99,,,-99.99,709.919983,,2013-09-12 17:00:00,
2013-09-12 13:43:00,80.0,54.0,-100.00,WNW,292,4.0,-999.0,40,-99.99,,,-99.99,709.919983,,2013-09-12 17:43:00,
2013-09-12 13:54:00,80.0,54.0,-100.00,WNW,292,4.0,-999.0,40,-99.99,,,-99.99,709.919983,,2013-09-12 17:54:00,
2013-09-12 14:00:00,78.0,55.0,-100.00,WNW,292,8.0,-999.0,44,-99.99,,,-99.99,613.640015,,2013-09-12 18:00:00,
2013-09-12 14:42:00,78.0,55.0,-100.00,WNW,292,8.0,-999.0,44,-99.99,,,-99.99,613.640015,,2013-09-12 18:42:00,
2013-09-12 14:52:00,78.0,55.0,-100.00,WNW,292,8.0,-999.0,44,-99.99,,,-99.99,613.640015,,2013-09-12 18:52:00,
2013-09-12 15:00:00,78.0,55.0,-100.00,NW,315,8.0,-999.0,45,-99.99,,,-99.99,694.840027,,2013-09-12 19:00:00,
2013-09-12 15:42:00,78.0,55.0,-100.00,NW,315,8.0,-999.0,45,-99.99,,,-99.99,694.840027,,2013-09-12 19:42:00,
2013-09-12 15:52:00,78.0,55.0,-100.00,NW,315,8.0,-999.0,45,-99.99,,,-99.99,694.840027,,2013-09-12 19:52:00,
2013-09-12 16:00:00,78.0,56.0,-100.00,WSW,247,8.0,-999.0,47,-99.99,,,-99.99,638.000000,,2013-09-12 20:00:00,
2013-09-12 16:42:00,78.0,56.0,-100.00,WSW,247,8.0,-999.0,47,-99.99,,,-99.99,638.000000,,2013-09-12 20:42:00,
2013-09-12 16:52:00,78.0,56.0,-100.00,WSW,247,8.0,-999.0,47,-99.99,,,-99.99,638.000000,,2013-09-12 20:52:00,
2013-09-12 18:00:00,70.0,56.0,-100.00,WNW,292,12.0,-999.0,60,-99.99,,,-99.99,196.039993,,2013-09-12 22:00:00,
2013-09-12 18:43:00,70.0,56.0,-100.00,WNW,292,12.0,-999.0,60,-99.99,,,-99.99,196.039993,,2013-09-12 22:43:00,
2013-09-12 18:54:00,70.0,56.0,-100.00,WNW,292,12.0,-999.0,60,-99.99,,,-99.99,196.039993,,2013-09-12 22:54:00,
2013-09-12 19:00:00,68.0,56.0,-100.00,West,270,10.0,-999.0,65,-99.99,,,-99.99,132.240005,,2013-09-12 23:00:00,
2013-09-12 19:43:00,68.0,56.0,-100.00,West,270,10.0,-999.0,65,-99.99,,,-99.99,132.240005,,2013-09-12 23:43:00,
2013-09-12 19:53:00,68.0,56.0,-100.00,West,270,10.0,-999.0,65,-99.99,,,-99.99,132.240005,,2013-09-12 23:53:00,
2013-09-12 21:00:00,63.0,52.0,-100.00,NNW,337,6.0,-999.0,68,-99.99,,,-99.99,0.000000,,2013-09-13 01:00:00,
2013-09-12 21:42:00,63.0,52.0,-100.00,NNW,337,6.0,-999.0,68,-99.99,,,-99.99,0.000000,,2013-09-13 01:42:00,
2013-09-12 21:53:00,63.0,52.0,-100.00,NNW,337,6.0,-999.0,68,-99.99,,,-99.99,0.000000,,2013-09-13 01:53:00,
2013-09-12 23:00:00,61.0,50.0,-100.00,South,180,7.0,-999.0,66,-99.99,,,-99.99,0.000000,,2013-09-13 03:00:00,
2013-09-12 23:45:00,61.0,50.0,-100.00,South,180,7.0,-999.0,66,-99.99,,,-99.99,0.000000,,2013-09-13 03:45:00,
2013-09-12 23:55:00,61.0,50.0,-100.00,South,180,7.0,-999.0,66,-99.99,,,-99.99,0.000000,,2013-09-13 03:55:00,